Haines, AK

12:23 AM AKDT on October 02, 2014 (GMT -0800)
Haines | Change Station
CLOSE
Current Station
Airport
Location: Haines,
Elevation: 16 ft
Nearby Weather Stations

Elev 16 ft 59.24 °N, 135.51 °W | Updated 29 minutes ago

Clear
Clear
41 °F
Feels Like 34 °F
N
13
Wind Variable Wind from NW

Today
High -- | Low -- °F
--% Chance of Precip.
Yesterday
High -- | Low -- °F
Precip. -- in
7:09 AM 6:31 PM
First Quarter, 56% visible
Pressure 30.32 in
Visibility 10.0 miles
Clouds Clear
Windchill 34 °F
Dew Point 25 °F
Humidity 53%
Rainfall 0.22 in
Snow Depth Not available.
UV 0 out of 12
Pollen Not available.
Air Quality Not available.
Flu Activity Not available.
METAR PAHN 020754Z AUTO 32011KT 10SM CLR 05/M04 A3031 RMK AO2 SLP265 T00501039 TSNO

More Conditions Fewer Conditions

Pressure 30.32 in
Visibility 10.0 miles
Clouds Clear
Windchill 34 °F
Dew Point 25 °F
Humidity 53%
Rainfall 0.22 in
Snow Depth Not available.
UV 0 out of 12
Pollen Not available.
Air Quality Not available.
Flu Activity Not available.
METAR PAHN 020754Z AUTO 32011KT 10SM CLR 05/M04 A3031 RMK AO2 SLP265 T00501039 TSNO

More Conditions Fewer Conditions

10-Day Weather Forecast

Almanac

Astronomy

Oct. 02, 2014 Rise Set
Actual Time 7:09 AM AKDT 6:31 PM AKDT
Civil Twilight 6:29 AM AKDT 7:11 PM AKDT
Nautical Twilight 5:41 AM AKDT 7:59 PM AKDT
Astronomical Twilight 4:51 AM AKDT 8:48 PM AKDT
Moon 3:56 PM AKDT No Moon Set
Length of Visible Light 12h 42m
Length of Day
11h 21m
Tomorrow will be 5m 13s shorter.
First Quarter, 56% of the Moon is Illuminated
Today
First Quarter
Oct 8
Full
Oct 15
Last Quarter
Oct 23
New
Oct 30
First Quarter

Today's Extremes

State Highs State Lows

Community

WunderPhotos

Upload Photos

1,758,196 photos uploaded!

WunderBlogs® & News

By Dr. Jeff Masters
Director of Meteorology, Weather Underground
By Kari Strenfel
Meteorologist, Weather Underground
By Christopher C. Burt
Weather Historian, Weather Underground
October 2, 2014
October 2, 2014
October 2, 2014

Nearby

Snow Depth

Station Depth Elevation
MF Bradley River 2 in 2300 ft
Point Mackenzie 1 in 200 ft
Granite Creek 0 in 1240 ft
Grouse Creek Divide 0 in 700 ft
Mcneil Canyon 1 in 1320 ft

Earthquake Activity

City Distance Mag. Time & Date
No recent earthquake activity has been reported nearby.
Minimum magnitude displayed is 2.5.

Coastal Water Temperatures

Place Temperature
No Stations Reporting

Nearby Weather Stations